Pi-Star:4.1.5-RMB / Tableau: 20200916_2-f1rmb

Pi-Star Digital Voice Tableau für DB0SLF


Letzten 40 Rufzeichen, die gehört wurden
Auto Refresh


Letzten 40 Rufzeichen, die dieses Gateway nutzten
Auto Refresh


DAPNET Gateway Activity
Zeit (CEST)Time in CEST time zone Time SlotMessage Mode ZielRIC / CapCode of the receiving Pager MessageMessage contents
02:22:12 Oct 1stSlot 00004520[Skyper Rubric:62 Msg:8] EDDP 302350Z 14002KT 9999 BKN048 11/10 Q1012 NOSIG
02:22:12 Oct 1stSlot 00001062EDDP 302350Z 14002KT 9999 BKN048 11/10 Q1012 NOSIG
02:22:12 Oct 1stSlot 00004520[Skyper Rubric:62 Msg:7] EDDV 302350Z 10003KT CAVOK 11/11 Q1011
02:22:12 Oct 1stSlot 00001062EDDV 302350Z 10003KT CAVOK 11/11 Q1011
02:21:26 Oct 1stSlot 90004520[Skyper Rubric:62 Msg:6] EDDS 302350Z 30003KT 9999 BCFG NSC 09/08 Q1011
02:21:26 Oct 1stSlot 90001062EDDS 302350Z 30003KT 9999 BCFG NSC 09/08 Q1011
02:21:26 Oct 1stSlot 90004520[Skyper Rubric:62 Msg:5] EDDL 302350Z 15011KT 9999 FEW044 14/11 Q1008 NOSIG
02:21:26 Oct 1stSlot 90001062EDDL 302350Z 15011KT 9999 FEW044 14/11 Q1008 NOSIG
02:21:26 Oct 1stSlot 90004520[Skyper Rubric:62 Msg:3] EDDH 302350Z 11005KT CAVOK 11/10 Q1011 NOSIG
02:21:26 Oct 1stSlot 90001062EDDH 302350Z 11005KT CAVOK 11/10 Q1011 NOSIG
02:21:20 Oct 1stSlot 80004520[Skyper Rubric:62 Msg:2] EDDF 302350Z 05005KT 030V090 9999 FEW032 10/10 Q1010 NOSIG
02:21:20 Oct 1stSlot 80001062EDDF 302350Z 05005KT 030V090 9999 FEW032 10/10 Q1010 NOSIG
02:21:20 Oct 1stSlot 80004520[Skyper Rubric:62 Msg:1] EDDT 302350Z VRB01KT 9999 R08L/0400N BCFG NSC 09/08 Q1012
02:21:20 Oct 1stSlot 80001062EDDT 302350Z VRB01KT 9999 R08L/0400N BCFG NSC 09/08 Q1012
02:21:20 Oct 1stSlot 80000224YYYYMMDDHHMMSS201001022100
02:20:28 Oct 1stSlot 00000008db0slf
02:20:28 Oct 1stSlot 00000216YYYYMMDDHHMMSS201001002000
02:19:37 Oct 1stSlot 80000224YYYYMMDDHHMMSS201001021900
02:18:00 Oct 1stSlot 80000216YYYYMMDDHHMMSS201001001800
02:18:00 Oct 1stSlot 80000200XTIME=0018011020XTIME=0018011020
Auto Refresh